Time;durP1;ratioP1;P1;durP2;ratioP2;P2;SDS_P1;SDS_P2;PMS_P1;PMS_P2;Temp;Humidity;BMP_temperature;BMP_pressure;BME280_temperature;BME280_humidity;BME280_pressure;Samples;Min_cycle;Max_cycle;Signal;HPM_P1;HPM_P2
2023/07/04 00:01:21;;;;;;;8.80;2.05;;;13.60;99.90;;;;;;5095703;28;20048;-60
2023/07/04 00:03:50;;;;;;;9.15;1.85;;;13.00;99.90;;;;;;5095599;28;20048;-60
2023/07/04 00:06:17;;;;;;;6.50;2.13;;;13.10;99.90;;;;;;5095540;28;20040;-60
2023/07/04 00:08:43;;;;;;;4.93;1.83;;;13.50;99.90;;;;;;5095211;28;20047;-60
2023/07/04 00:11:10;;;;;;;6.80;2.20;;;12.90;99.90;;;;;;5095515;28;20039;-60
2023/07/04 00:13:37;;;;;;;7.60;1.77;;;12.90;99.90;;;;;;5095426;28;20036;-60
2023/07/04 00:16:06;;;;;;;9.00;1.98;;;12.90;99.90;;;;;;5095331;28;20123;-60
2023/07/04 00:18:32;;;;;;;6.43;1.88;;;12.80;99.90;;;;;;5094982;28;20042;-60
2023/07/04 00:20:59;;;;;;;7.28;2.03;;;12.80;99.90;;;;;;5095193;28;20032;-59
2023/07/04 00:23:27;;;;;;;5.60;2.03;;;12.80;99.90;;;;;;5095044;28;20043;-60
2023/07/04 00:25:54;;;;;;;4.45;1.63;;;12.80;99.90;;;;;;5095081;28;20050;-59
2023/07/04 00:28:21;;;;;;;4.10;1.70;;;12.70;99.90;;;;;;5095138;28;20032;-59
2023/07/04 00:30:47;;;;;;;9.75;2.10;;;12.70;99.90;;;;;;5095041;28;20088;-60
2023/07/04 00:33:13;;;;;;;4.25;1.50;;;12.70;99.90;;;;;;5095053;28;20040;-60
2023/07/04 00:35:40;;;;;;;8.02;1.77;;;12.70;99.90;;;;;;5093785;28;20363;-60
2023/07/04 00:38:05;;;;;;;6.57;2.30;;;12.60;99.90;;;;;;5094952;28;20083;-59
2023/07/04 00:40:31;;;;;;;3.95;1.60;;;12.60;99.90;;;;;;5094548;28;20128;-59
2023/07/04 00:43:02;;;;;;;10.05;1.77;;;13.30;99.90;;;;;;5094847;28;20040;-60
2023/07/04 00:45:31;;;;;;;5.00;1.70;;;13.40;99.90;;;;;;5094753;28;20043;-59
2023/07/04 00:48:03;;;;;;;5.05;1.58;;;12.50;99.90;;;;;;5094552;28;20092;-59
2023/07/04 00:50:32;;;;;;;8.15;1.83;;;12.50;99.90;;;;;;5094665;28;20042;-59
2023/07/04 00:53:02;;;;;;;4.40;1.52;;;12.50;99.90;;;;;;5094579;28;20391;-59
2023/07/04 00:55:30;;;;;;;3.97;1.67;;;12.40;99.90;;;;;;5094608;28;20114;-59
2023/07/04 00:57:56;;;;;;;5.82;1.75;;;12.40;99.90;;;;;;5093079;28;20335;-60
2023/07/04 01:00:25;;;;;;;5.68;1.80;;;12.30;99.90;;;;;;5094403;28;20036;-59
2023/07/04 01:03:01;;;;;;;4.25;1.48;;;12.40;99.90;;;;;;5094476;28;20071;-59
2023/07/04 01:05:48;;;;;;;3.70;1.73;;;12.30;99.90;;;;;;5094299;28;20478;-59
2023/07/04 01:08:32;;;;;;;5.43;1.88;;;12.30;99.90;;;;;;5094367;28;20040;-60
2023/07/04 01:11:02;;;;;;;6.80;1.73;;;12.30;99.90;;;;;;5094280;28;20036;-59
2023/07/04 01:13:37;;;;;;;6.60;2.13;;;12.40;99.90;;;;;;5092672;28;20036;-59
2023/07/04 01:16:04;;;;;;;5.75;2.10;;;12.30;99.90;;;;;;5093902;28;20047;-59
2023/07/04 01:18:31;;;;;;;7.15;2.17;;;12.30;99.90;;;;;;5094113;28;20087;-59
2023/07/04 01:20:58;;;;;;;6.97;1.95;;;12.30;99.90;;;;;;5092857;28;20575;-59
2023/07/04 01:23:38;;;;;;;6.70;2.10;;;12.30;99.90;;;;;;5093948;28;20082;-59
2023/07/04 01:26:31;;;;;;;9.68;2.40;;;12.60;99.90;;;;;;5093885;28;20089;-60
2023/07/04 01:28:59;;;;;;;7.15;2.33;;;12.40;99.90;;;;;;5093941;28;20460;-59
2023/07/04 01:31:26;;;;;;;4.00;2.22;;;12.30;99.90;;;;;;5093905;28;20078;-60
2023/07/04 01:33:53;;;;;;;8.25;2.70;;;12.40;99.90;;;;;;5092697;28;20048;-59
2023/07/04 01:36:24;;;;;;;8.35;2.80;;;12.40;99.90;;;;;;5093862;28;20040;-59
2023/07/04 01:38:50;;;;;;;9.40;2.58;;;12.40;99.90;;;;;;5093490;28;20107;-59
2023/07/04 01:41:16;;;;;;;5.25;2.10;;;12.50;99.90;;;;;;5093706;28;20074;-59
2023/07/04 01:43:46;;;;;;;8.13;3.05;;;12.50;99.90;;;;;;5093534;28;20036;-60
2023/07/04 01:46:12;;;;;;;6.07;2.70;;;12.70;99.90;;;;;;5092099;28;20043;-59
2023/07/04 01:48:38;;;;;;;5.32;3.17;;;13.40;99.90;;;;;;5093572;28;20032;-59
2023/07/04 01:51:03;;;;;;;9.85;3.00;;;12.50;99.90;;;;;;5108913;28;20032;-59
2023/07/04 01:53:29;;;;;;;6.75;3.00;;;12.60;99.90;;;;;;5108898;28;20032;-60
2023/07/04 01:55:55;;;;;;;9.43;3.25;;;12.60;99.90;;;;;;5092303;28;20119;-59
2023/07/04 01:58:20;;;;;;;8.48;2.78;;;13.50;99.90;;;;;;5093220;28;20039;-60
2023/07/04 02:00:46;;;;;;;6.47;2.67;;;12.60;99.90;;;;;;5093321;28;20035;-59
2023/07/04 02:03:12;;;;;;;9.95;3.03;;;14.90;99.90;;;;;;5093363;28;20043;-60
2023/07/04 02:05:37;;;;;;;8.75;3.42;;;12.60;99.90;;;;;;5093247;28;20079;-59
2023/07/04 02:08:03;;;;;;;10.48;2.72;;;12.60;99.90;;;;;;5093219;28;20040;-60
2023/07/04 02:10:29;;;;;;;7.32;3.17;;;12.70;99.90;;;;;;5093186;28;20032;-59
2023/07/04 02:12:54;;;;;;;8.05;2.97;;;12.70;99.90;;;;;;5092783;28;20471;-59
2023/07/04 02:15:20;;;;;;;8.68;2.97;;;13.00;99.90;;;;;;5093208;28;20039;-60
2023/07/04 02:17:47;;;;;;;6.95;3.47;;;12.70;99.90;;;;;;5093148;28;20040;-59
2023/07/04 02:20:12;;;;;;;10.02;3.17;;;12.70;99.90;;;;;;5093034;28;20043;-60
2023/07/04 02:22:41;;;;;;;6.50;2.88;;;12.70;99.90;;;;;;5092863;28;20032;-59
2023/07/04 02:25:07;;;;;;;9.93;3.20;;;12.70;99.90;;;;;;5092537;28;20078;-60
2023/07/04 02:27:33;;;;;;;6.30;2.72;;;12.70;99.90;;;;;;5092995;28;20044;-60
2023/07/04 02:29:58;;;;;;;8.73;2.85;;;12.70;99.90;;;;;;5092966;28;20130;-59
2023/07/04 02:32:24;;;;;;;7.18;2.75;;;12.70;99.90;;;;;;5092972;28;20114;-59
2023/07/04 02:34:49;;;;;;;5.75;2.80;;;12.70;99.90;;;;;;5108375;28;20113;-60
2023/07/04 02:37:15;;;;;;;9.00;2.75;;;12.70;99.90;;;;;;5092898;28;20391;-60
2023/07/04 02:39:41;;;;;;;5.47;2.60;;;12.90;99.90;;;;;;5092902;28;20100;-59
2023/07/04 02:42:07;;;;;;;8.10;3.05;;;12.70;99.90;;;;;;5108313;28;20040;-59
2023/07/04 02:44:34;;;;;;;10.70;3.03;;;12.70;99.90;;;;;;5092470;28;20036;-60
2023/07/04 02:46:59;;;;;;;9.40;3.05;;;12.70;99.90;;;;;;5092879;28;20043;-59
2023/07/04 02:49:25;;;;;;;5.88;2.58;;;12.70;99.90;;;;;;5092490;28;20036;-60
2023/07/04 02:51:50;;;;;;;9.23;2.70;;;12.70;99.90;;;;;;5092562;28;20087;-60
2023/07/04 02:54:16;;;;;;;6.53;3.30;;;12.70;99.90;;;;;;5092767;28;20077;-59
2023/07/04 02:56:42;;;;;;;6.47;3.10;;;12.70;99.90;;;;;;5092688;28;20119;-60
2023/07/04 02:59:08;;;;;;;7.88;2.53;;;12.70;99.90;;;;;;5091259;28;20071;-59
2023/07/04 03:01:33;;;;;;;9.40;2.80;;;12.70;99.90;;;;;;5092374;28;20083;-59
2023/07/04 03:03:59;;;;;;;6.90;2.75;;;12.70;99.90;;;;;;5092718;28;20038;-61
2023/07/04 03:06:25;;;;;;;5.50;2.88;;;12.70;99.90;;;;;;5092501;28;20101;-59
2023/07/04 03:08:51;;;;;;;7.72;2.90;;;12.70;99.90;;;;;;5092685;28;20040;-59
2023/07/04 03:11:17;;;;;;;6.13;2.92;;;12.70;99.90;;;;;;5092337;28;20050;-59
2023/07/04 03:13:43;;;;;;;5.53;2.55;;;12.80;99.90;;;;;;5092607;28;20119;-59
2023/07/04 03:16:09;;;;;;;7.85;2.72;;;13.00;99.90;;;;;;5092526;28;20047;-59
2023/07/04 03:18:34;;;;;;;5.68;2.53;;;13.20;99.90;;;;;;5092443;28;20051;-60
2023/07/04 03:21:00;;;;;;;5.95;2.72;;;12.80;99.90;;;;;;5108192;28;20122;-59
2023/07/04 03:23:25;;;;;;;4.63;2.55;;;13.10;99.90;;;;;;5092930;28;20043;-60
2023/07/04 03:25:51;;;;;;;7.93;2.80;;;12.80;99.90;;;;;;5095799;28;20629;-60
2023/07/04 03:28:16;;;;;;;6.25;2.80;;;12.80;99.90;;;;;;5096288;28;20044;-59
2023/07/04 03:30:42;;;;;;;4.32;2.25;;;12.90;99.90;;;;;;5095832;28;20036;-60
2023/07/04 03:33:08;;;;;;;4.45;2.35;;;12.90;99.90;;;;;;5096335;28;20036;-59
2023/07/04 03:35:37;;;;;;;7.78;2.90;;;12.90;99.90;;;;;;5111574;28;20044;-59
2023/07/04 03:38:03;;;;;;;7.65;2.05;;;13.90;99.90;;;;;;5096087;28;20044;-59
2023/07/04 03:40:28;;;;;;;5.20;2.25;;;12.90;99.90;;;;;;5096072;28;20502;-59
2023/07/04 03:42:54;;;;;;;4.82;1.70;;;12.90;99.90;;;;;;5095741;28;20071;-59
2023/07/04 03:45:19;;;;;;;8.38;2.40;;;12.80;99.90;;;;;;5095916;28;20089;-59
2023/07/04 03:47:45;;;;;;;5.88;2.03;;;12.90;99.90;;;;;;5095690;28;20042;-59
2023/07/04 03:50:13;;;;;;;8.48;2.47;;;12.90;99.90;;;;;;5095573;28;20039;-60
2023/07/04 03:52:39;;;;;;;6.70;2.67;;;13.40;99.90;;;;;;5095886;28;20036;-59
2023/07/04 03:55:05;;;;;;;4.18;2.28;;;12.90;99.90;;;;;;5095794;28;20086;-60
2023/07/04 03:57:31;;;;;;;9.27;2.38;;;12.90;99.90;;;;;;5095825;28;20407;-59
2023/07/04 03:59:57;;;;;;;4.95;2.17;;;12.90;99.90;;;;;;5095713;28;20044;-59
2023/07/04 04:02:22;;;;;;;5.13;2.58;;;12.90;99.90;;;;;;5095641;28;20068;-60
2023/07/04 04:04:48;;;;;;;4.60;2.25;;;12.90;99.90;;;;;;5095438;28;20096;-60
2023/07/04 04:07:14;;;;;;;11.43;2.80;;;12.90;99.90;;;;;;5095219;28;20403;-60
2023/07/04 04:09:40;;;;;;;7.35;2.22;;;12.90;99.90;;;;;;5095540;28;20494;-60
2023/07/04 04:12:07;;;;;;;10.38;2.55;;;13.00;99.90;;;;;;5095413;28;20036;-60
2023/07/04 04:14:34;;;;;;;4.55;2.40;;;12.90;99.90;;;;;;5095350;28;20123;-60
2023/07/04 04:17:00;;;;;;;7.60;2.72;;;12.90;99.90;;;;;;5095400;28;20388;-60
2023/07/04 04:19:26;;;;;;;6.00;2.35;;;13.00;99.90;;;;;;5095234;28;20043;-60
2023/07/04 04:21:55;;;;;;;5.78;2.58;;;13.20;99.90;;;;;;5077178;28;20047;-60
2023/07/04 04:24:22;;;;;;;4.82;2.17;;;13.00;99.90;;;;;;5093624;28;20127;-60
2023/07/04 04:26:48;;;;;;;4.38;2.38;;;13.20;99.90;;;;;;5094793;28;20048;-60
2023/07/04 04:29:18;;;;;;;6.38;2.28;;;13.00;99.90;;;;;;5095147;28;20040;-60
2023/07/04 04:31:45;;;;;;;7.53;2.33;;;13.00;99.90;;;;;;5094699;28;20036;-60
2023/07/04 04:34:11;;;;;;;8.27;2.63;;;13.00;99.90;;;;;;5094186;28;20089;-60
2023/07/04 04:36:37;;;;;;;5.82;2.65;;;13.10;99.90;;;;;;5094912;28;20044;-60
2023/07/04 04:39:03;;;;;;;9.73;3.13;;;13.10;99.90;;;;;;5094968;28;20066;-61
2023/07/04 04:41:29;;;;;;;6.32;3.03;;;13.20;99.90;;;;;;5094636;28;20070;-60
2023/07/04 04:43:57;;;;;;;7.97;2.95;;;13.30;99.90;;;;;;5094824;28;20036;-60
2023/07/04 04:46:23;;;;;;;6.60;2.88;;;13.60;99.90;;;;;;5094622;28;20044;-61
2023/07/04 04:48:49;;;;;;;7.15;2.63;;;13.40;99.90;;;;;;5110151;28;20093;-61
2023/07/04 04:51:15;;;;;;;7.70;3.20;;;13.50;99.90;;;;;;5094695;28;20040;-61
2023/07/04 04:53:44;;;;;;;7.78;2.95;;;13.50;99.90;;;;;;5094581;28;20490;-61
2023/07/04 04:56:11;;;;;;;9.02;2.80;;;13.70;99.90;;;;;;5094630;28;20048;-61
2023/07/04 04:58:37;;;;;;;8.05;2.90;;;13.50;99.90;;;;;;5094525;28;20564;-61
2023/07/04 05:01:10;;;;;;;7.47;2.55;;;13.50;99.90;;;;;;5094493;28;20136;-61
2023/07/04 05:03:36;;;;;;;9.25;2.55;;;13.60;99.90;;;;;;5094366;28;20368;-60
2023/07/04 05:06:03;;;;;;;5.15;2.63;;;13.50;99.90;;;;;;5094332;28;20083;-61
2023/07/04 05:08:28;;;;;;;5.78;3.00;;;13.50;99.90;;;;;;5094322;28;20036;-61
2023/07/04 05:11:00;;;;;;;9.10;2.53;;;13.50;99.90;;;;;;5094319;28;20082;-61
2023/07/04 05:13:25;;;;;;;6.45;3.22;;;13.50;99.90;;;;;;5093955;28;20040;-61
2023/07/04 05:16:02;;;;;;;10.32;2.67;;;13.60;99.90;;;;;;5093930;28;20127;-61
2023/07/04 05:18:28;;;;;;;5.65;2.25;;;13.60;99.90;;;;;;5093853;28;20427;-61
2023/07/04 05:21:12;;;;;;;7.30;2.72;;;13.60;99.90;;;;;;5094086;28;20036;-61
2023/07/04 05:23:43;;;;;;;5.35;2.47;;;13.60;99.90;;;;;;5109312;28;20040;-61
2023/07/04 05:26:19;;;;;;;4.35;2.42;;;13.60;99.90;;;;;;5094084;28;20048;-60
2023/07/04 05:28:45;;;;;;;8.02;2.47;;;13.70;99.90;;;;;;5093998;28;20046;-61
2023/07/04 05:31:15;;;;;;;7.80;2.30;;;13.70;99.90;;;;;;5094020;28;20475;-61
2023/07/04 05:33:41;;;;;;;;;;;13.80;99.90;;;;;;5093909;28;20081;-64
2023/07/04 05:36:09;;;;;;;7.53;2.22;;;13.80;99.90;;;;;;5093825;28;19916;-60
2023/07/04 05:38:36;;;;;;;9.02;2.42;;;13.80;99.90;;;;;;5093811;28;20044;-60
2023/07/04 05:41:02;;;;;;;5.20;2.47;;;13.90;99.90;;;;;;5093790;28;20403;-60
2023/07/04 05:43:28;;;;;;;4.80;2.05;;;13.80;99.90;;;;;;5093724;28;20483;-60
2023/07/04 05:45:55;;;;;;;8.07;2.17;;;13.90;99.90;;;;;;5092589;28;20086;-60
2023/07/04 05:48:21;;;;;;;4.18;2.13;;;13.90;99.90;;;;;;5093509;28;20365;-61
2023/07/04 05:51:00;;;;;;;6.53;2.20;;;13.90;99.90;;;;;;5093314;28;20032;-60
2023/07/04 05:53:28;;;;;;;8.95;2.50;;;13.80;99.90;;;;;;5093484;28;20166;-59
2023/07/04 05:56:17;;;;;;;5.47;1.73;;;14.00;99.90;;;;;;5093546;28;20490;-59
2023/07/04 05:58:46;;;;;;;4.38;1.65;;;14.10;99.90;;;;;;5092124;28;20196;-59
2023/07/04 06:01:25;;;;;;;5.68;1.80;;;14.20;99.90;;;;;;5093392;28;20044;-60
2023/07/04 06:03:52;;;;;;;2.90;1.83;;;14.30;99.90;;;;;;5093474;28;20031;-59
2023/07/04 06:06:21;;;;;;;7.22;2.00;;;14.20;99.90;;;;;;5093207;28;20051;-60
2023/07/04 06:08:47;;;;;;;3.95;1.75;;;14.80;99.90;;;;;;5093270;28;20061;-60
2023/07/04 06:11:13;;;;;;;3.67;1.90;;;14.30;99.90;;;;;;5093335;28;20040;-60
2023/07/04 06:13:40;;;;;;;5.60;1.80;;;14.40;99.90;;;;;;5093174;28;20040;-60
2023/07/04 06:16:05;;;;;;;5.22;1.88;;;14.40;99.90;;;;;;5093251;28;20043;-60
2023/07/04 06:18:31;;;;;;;7.53;1.60;;;14.40;99.90;;;;;;5092780;28;20071;-60
2023/07/04 06:21:08;;;;;;;3.33;1.48;;;14.30;99.90;;;;;;5093083;28;20086;-60
2023/07/04 06:23:33;;;;;;;8.13;2.10;;;14.40;99.90;;;;;;5093101;28;20372;-60
2023/07/04 06:25:59;;;;;;;6.55;1.38;;;14.50;99.90;;;;;;5092498;28;20051;-60
2023/07/04 06:28:25;;;;;;;3.88;1.80;;;14.60;99.90;;;;;;5092715;28;20040;-60
2023/07/04 06:30:51;;;;;;;4.53;1.70;;;14.60;99.90;;;;;;5092998;28;20085;-60
2023/07/04 06:33:16;;;;;;;4.25;1.50;;;14.70;99.90;;;;;;5092707;28;20507;-59
2023/07/04 06:35:42;;;;;;;3.17;1.50;;;14.70;99.90;;;;;;5092589;28;20047;-60
2023/07/04 06:38:09;;;;;;;5.30;1.67;;;14.70;99.90;;;;;;5092866;28;20101;-61
2023/07/04 06:40:34;;;;;;;3.03;1.45;;;14.80;99.90;;;;;;5092846;28;20086;-60
2023/07/04 06:43:00;;;;;;;4.80;1.50;;;14.70;99.90;;;;;;5092560;28;20495;-60
2023/07/04 06:45:26;;;;;;;2.42;1.27;;;14.70;99.90;;;;;;5092790;28;20096;-60
2023/07/04 06:47:52;;;;;;;2.72;1.42;;;14.80;99.90;;;;;;5092679;28;20036;-60
2023/07/04 06:50:17;;;;;;;3.92;1.50;;;14.90;99.90;;;;;;5092847;28;20044;-60
2023/07/04 06:52:43;;;;;;;3.20;1.25;;;15.00;99.90;;;;;;5092677;28;20111;-60
2023/07/04 06:55:08;;;;;;;1.77;1.20;;;15.00;99.90;;;;;;5092444;28;20483;-60
2023/07/04 06:57:34;;;;;;;3.30;1.33;;;15.10;99.90;;;;;;5093831;28;20043;-60
2023/07/04 06:59:59;;;;;;;2.53;1.48;;;15.10;99.90;;;;;;5096891;28;20433;-61
2023/07/04 07:02:25;;;;;;;3.28;1.45;;;15.10;99.90;;;;;;5096876;28;20047;-60
2023/07/04 07:04:51;;;;;;;4.40;1.88;;;15.20;99.90;;;;;;5096735;28;20085;-60
2023/07/04 07:07:16;;;;;;;3.15;1.40;;;15.10;99.90;;;;;;5096661;28;20077;-60
2023/07/04 07:09:42;;;;;;;4.03;1.70;;;15.20;99.90;;;;;;5112420;28;20116;-60
2023/07/04 07:12:10;;;;;;;2.85;1.38;;;15.30;99.90;;;;;;5096718;28;20032;-60
2023/07/04 07:14:37;;;;;;;7.00;1.60;;;15.40;99.90;;;;;;5096592;28;20111;-60
2023/07/04 07:17:04;;;;;;;5.63;1.63;;;15.50;99.90;;;;;;5096552;28;20043;-60
2023/07/04 07:19:29;;;;;;;3.97;1.70;;;15.50;99.90;;;;;;5096230;28;20044;-60
2023/07/04 07:21:55;;;;;;;7.15;1.83;;;15.50;99.90;;;;;;5096508;28;20437;-60
2023/07/04 07:24:21;;;;;;;3.35;1.40;;;15.50;99.90;;;;;;5095992;28;20101;-60
2023/07/04 07:26:47;;;;;;;2.55;1.35;;;15.60;99.90;;;;;;5094797;28;20055;-60
2023/07/04 07:29:13;;;;;;;2.75;1.15;;;15.60;99.90;;;;;;5096040;28;20036;-60
2023/07/04 07:31:38;;;;;;;2.42;1.50;;;15.60;99.90;;;;;;5096269;28;20047;-60
2023/07/04 07:34:04;;;;;;;3.47;1.45;;;15.60;99.90;;;;;;5096183;28;20463;-60
2023/07/04 07:36:37;;;;;;;6.35;1.77;;;16.10;99.90;;;;;;5096196;28;20036;-60
2023/07/04 07:39:04;;;;;;;3.45;1.13;;;15.70;99.90;;;;;;5096257;28;20048;-60
2023/07/04 07:41:34;;;;;;;3.65;1.20;;;15.70;99.90;;;;;;5094590;28;20097;-60
2023/07/04 07:44:00;;;;;;;5.95;1.95;;;15.70;99.90;;;;;;5096148;28;20032;-60
2023/07/04 07:46:25;;;;;;;2.47;1.13;;;16.00;99.90;;;;;;5095915;28;20040;-60
2023/07/04 07:48:51;;;;;;;3.42;1.40;;;15.80;99.90;;;;;;5095698;28;20044;-60
2023/07/04 07:51:19;;;;;;;3.17;1.27;;;15.90;99.90;;;;;;5095701;28;20040;-61
2023/07/04 07:53:46;;;;;;;4.25;1.52;;;16.10;99.90;;;;;;5095878;28;20459;-60
2023/07/04 07:56:14;;;;;;;1.75;1.00;;;16.10;99.90;;;;;;5095963;28;20473;-60
2023/07/04 07:58:40;;;;;;;8.82;1.70;;;16.20;99.90;;;;;;5095865;28;20407;-60
2023/07/04 08:01:18;;;;;;;3.13;1.00;;;16.20;99.90;;;;;;5095682;28;20425;-60
2023/07/04 08:03:44;;;;;;;2.25;1.08;;;16.20;99.90;;;;;;5095675;28;20047;-60
2023/07/04 08:06:29;;;;;;;2.20;1.23;;;16.30;99.90;;;;;;5095320;28;20563;-60
2023/07/04 08:08:57;;;;;;;3.55;1.40;;;16.30;99.90;;;;;;5094446;28;20032;-60
2023/07/04 08:11:23;;;;;;;2.83;1.38;;;16.30;99.50;;;;;;5095539;28;20046;-60
2023/07/04 08:13:49;;;;;;;4.18;1.33;;;16.40;97.70;;;;;;5095486;28;20028;-60
2023/07/04 08:16:21;;;;;;;1.50;1.05;;;16.40;98.80;;;;;;5095470;28;20050;-60
2023/07/04 08:18:48;;;;;;;5.15;1.50;;;16.50;97.80;;;;;;5095385;28;20040;-60
2023/07/04 08:21:14;;;;;;;1.45;0.93;;;16.50;97.80;;;;;;5095308;28;20036;-60
2023/07/04 08:23:40;;;;;;;3.00;1.27;;;16.60;95.40;;;;;;5095172;28;20098;-60
2023/07/04 08:26:05;;;;;;;6.63;1.42;;;16.60;94.20;;;;;;5095081;28;20048;-61
2023/07/04 08:28:31;;;;;;;4.93;1.38;;;16.70;94.90;;;;;;5095091;28;20433;-60
2023/07/04 08:31:05;;;;;;;3.08;1.20;;;16.70;92.90;;;;;;5094949;28;20028;-60
2023/07/04 08:33:31;;;;;;;3.13;1.30;;;16.70;90.20;;;;;;5094900;28;20039;-60
2023/07/04 08:35:59;;;;;;;5.72;1.30;;;17.00;92.10;;;;;;5095067;28;20085;-60
2023/07/04 08:38:25;;;;;;;5.63;1.73;;;16.90;92.10;;;;;;5095046;28;20040;-60
2023/07/04 08:40:51;;;;;;;8.32;1.30;;;16.90;91.70;;;;;;5095048;28;20055;-60
2023/07/04 08:44:01;;;;;;;2.85;1.02;;;17.00;88.40;;;;;;5094911;28;20121;-60
2023/07/04 08:46:33;;;;;;;4.50;1.33;;;17.00;74.70;;;;;;5083657;28;20139;-60
2023/07/04 08:48:59;;;;;;;2.22;1.20;;;17.20;86.10;;;;;;5094565;28;20040;-60
2023/07/04 08:51:35;;;;;;;3.67;1.10;;;17.10;76.80;;;;;;5094755;28;20047;-61
2023/07/04 08:54:05;;;;;;;5.95;2.00;;;17.10;1.00;;;;;;5094723;28;20040;-60
2023/07/04 08:56:36;;;;;;;6.70;1.80;;;17.20;1.00;;;;;;5093133;28;20411;-60
2023/07/04 08:59:23;;;;;;;5.32;1.50;;;17.20;99.90;;;;;;5094608;28;20039;-60
2023/07/04 09:02:14;;;;;;;3.97;1.40;;;17.20;99.90;;;;;;5094521;28;20044;-61
2023/07/04 09:04:56;;;;;;;5.30;1.85;;;17.30;99.90;;;;;;5094467;28;20043;-60
2023/07/04 09:07:50;;;;;;;4.72;1.77;;;17.30;99.90;;;;;;5094173;28;20051;-60
2023/07/04 09:10:29;;;;;;;5.38;1.50;;;17.40;99.90;;;;;;5092861;28;20069;-60
2023/07/04 09:12:55;;;;;;;5.32;1.20;;;18.10;99.90;;;;;;5094246;28;20036;-60
2023/07/04 09:15:31;;;;;;;1.77;0.98;;;17.40;99.90;;;;;;5094347;28;20051;-60
2023/07/04 09:17:59;;;;;;;5.07;1.25;;;17.40;1.00;;;;;;5093899;28;20048;-61
2023/07/04 09:20:30;;;;;;;6.28;1.23;;;17.40;99.90;;;;;;5093840;28;20131;-64
2023/07/04 09:22:56;;;;;;;7.85;1.60;;;18.00;99.90;;;;;;5094206;28;20036;-64
2023/07/04 09:25:22;;;;;;;3.03;1.20;;;17.40;91.80;;;;;;5093814;28;20058;-63
2023/07/04 09:27:48;;;;;;;2.35;1.20;;;17.40;99.90;;;;;;5093733;28;20051;-63
2023/07/04 09:30:14;;;;;;;6.00;1.42;;;17.30;1.00;;;;;;5093648;28;20043;-63
2023/07/04 09:32:40;;;;;;;5.30;1.80;;;17.20;1.00;;;;;;5093715;28;20040;-63
2023/07/04 09:35:07;;;;;;;6.38;1.80;;;17.20;99.90;;;;;;5093913;28;20394;-63
2023/07/04 09:37:53;;;;;;;7.90;1.67;;;17.20;99.90;;;;;;5092596;28;20048;-64
2023/07/04 09:40:42;;;;;;;7.22;2.20;;;17.00;1.00;;;;;;5093866;28;20032;-63
2023/07/04 09:43:09;;;;;;;5.93;1.90;;;17.30;99.90;;;;;;5093500;28;20069;-64
2023/07/04 09:45:36;;;;;;;4.35;1.60;;;17.50;70.10;;;;;;5092086;28;20415;-64
2023/07/04 09:48:03;;;;;;;8.55;2.30;;;17.60;1.00;;;;;;5093721;28;20042;-63
2023/07/04 09:50:31;;;;;;;6.90;1.85;;;17.80;1.00;;;;;;5093592;28;20047;-64
2023/07/04 09:53:09;;;;;;;3.83;1.80;;;17.70;1.00;;;;;;5093588;28;20101;-64
2023/07/04 09:55:39;;;;;;;9.07;1.80;;;17.70;99.90;;;;;;5093141;28;20044;-65
2023/07/04 09:58:21;;;;;;;3.63;1.50;;;17.80;38.70;;;;;;5093579;28;20035;-64
2023/07/04 10:01:10;;;;;;;8.90;1.75;;;18.10;99.90;;;;;;5092994;28;20089;-64
2023/07/04 10:03:40;;;;;;;5.80;1.70;;;18.30;99.90;;;;;;5093292;28;20051;-64
2023/07/04 10:06:08;;;;;;;4.65;1.60;;;18.60;99.90;;;;;;5093220;28;20043;-64
2023/07/04 10:08:54;;;;;;;10.02;1.98;;;18.90;99.90;;;;;;5093061;28;20039;-64
2023/07/04 10:11:36;;;;;;;4.43;1.35;;;18.80;1.00;;;;;;5093075;28;20530;-66
2023/07/04 10:14:08;;;;;;;7.95;2.17;;;19.00;6.90;;;;;;5093070;28;20055;-66
2023/07/04 10:16:34;;;;;;;5.28;1.88;;;19.20;99.90;;;;;;5092936;28;20123;-65
2023/07/04 10:19:09;;;;;;;6.38;1.65;;;19.00;69.30;;;;;;5093014;28;20442;-66
2023/07/04 10:21:45;;;;;;;6.88;2.10;;;19.20;1.00;;;;;;5092885;28;20051;-66
2023/07/04 10:24:22;;;;;;;5.95;1.70;;;18.90;1.00;;;;;;5092827;28;20522;-64
2023/07/04 10:27:02;;;;;;;7.20;1.73;;;18.30;1.00;;;;;;5092816;28;20097;-64
2023/07/04 10:29:36;;;;;;;5.22;1.70;;;17.80;1.00;;;;;;5092947;28;20490;-63
2023/07/04 10:32:08;;;;;;;6.90;2.10;;;17.20;1.00;;;;;;5092475;28;20044;-64
2023/07/04 10:34:36;;;;;;;5.68;2.40;;;16.90;62.80;;;;;;5092426;28;20040;-63
2023/07/04 10:37:02;;;;;;;6.55;1.77;;;17.30;99.90;;;;;;5092729;28;20507;-64
2023/07/04 10:39:30;;;;;;;4.53;2.22;;;16.60;4.50;;;;;;5092785;28;20040;-63
2023/07/04 10:42:10;;;;;;;7.60;1.95;;;16.40;99.90;;;;;;5092826;28;20044;-63
2023/07/04 10:44:37;;;;;;;6.25;2.22;;;16.30;99.90;;;;;;5092793;28;20421;-63
2023/07/04 10:47:11;;;;;;;6.43;2.05;;;16.20;99.90;;;;;;5092342;28;20040;-63
2023/07/04 10:49:47;;;;;;;7.32;2.22;;;16.20;99.90;;;;;;5092585;28;20032;-62
2023/07/04 10:52:19;;;;;;;6.78;2.30;;;16.30;99.90;;;;;;5092712;28;20399;-62
2023/07/04 10:54:45;;;;;;;7.45;1.95;;;16.00;1.00;;;;;;5092715;28;20043;-62
2023/07/04 10:57:34;;;;;;;4.35;1.48;;;16.10;1.00;;;;;;5092781;28;20399;-62
2023/07/04 11:00:08;;;;;;;8.23;2.20;;;16.20;99.90;;;;;;5092773;28;20036;-62
2023/07/04 11:02:41;;;;;;;11.00;2.20;;;16.40;1.00;;;;;;5092710;28;20036;-63
2023/07/04 11:05:19;;;;;;;6.63;2.08;;;16.70;1.00;;;;;;5091078;28;20051;-62
2023/07/04 11:07:45;;;;;;;9.00;2.58;;;17.00;99.90;;;;;;5092363;28;20499;-62
2023/07/04 11:10:13;;;;;;;3.50;1.60;;;17.20;99.90;;;;;;5092746;28;20044;-62
2023/07/04 11:12:41;;;;;;;3.05;1.48;;;17.50;92.00;;;;;;5092399;28;20054;-63
2023/07/04 11:15:30;;;;;;;8.90;1.98;;;17.60;99.90;;;;;;5091368;28;20052;-62
2023/07/04 11:17:56;;;;;;;5.70;1.90;;;17.80;99.90;;;;;;5092686;28;20123;-62
2023/07/04 11:20:49;;;;;;;6.07;1.63;;;18.00;99.90;;;;;;5092362;28;20567;-62
2023/07/04 11:23:20;;;;;;;3.65;1.70;;;18.20;99.90;;;;;;5090967;28;20044;-62
2023/07/04 11:25:45;;;;;;;7.78;1.83;;;18.30;1.00;;;;;;5091974;28;20056;-63
2023/07/04 11:28:12;;;;;;;7.25;1.70;;;18.90;29.10;;;;;;5092472;28;20043;-62
2023/07/04 11:30:40;;;;;;;6.15;1.50;;;18.40;1.00;;;;;;5092435;28;20364;-61
2023/07/04 11:33:07;;;;;;;4.43;1.40;;;18.50;99.90;;;;;;5092321;28;20119;-62
2023/07/04 11:35:34;;;;;;;5.15;1.85;;;18.60;99.90;;;;;;5092196;28;20071;-62
2023/07/04 11:38:15;;;;;;;4.43;1.45;;;18.60;99.90;;;;;;5092292;28;20032;-63
2023/07/04 11:40:42;;;;;;;;;;;18.60;99.90;;;;;;5092642;28;20044;-63
2023/07/04 11:43:24;;;;;;;7.50;1.60;;;18.90;99.90;;;;;;5092264;28;19916;-63
2023/07/04 11:45:54;;;;;;;4.38;1.48;;;19.00;99.90;;;;;;5093779;28;20052;-62
2023/07/04 11:48:20;;;;;;;7.82;1.65;;;19.40;99.90;;;;;;5095565;28;20384;-62
2023/07/04 11:50:59;;;;;;;6.53;1.48;;;19.00;99.90;;;;;;5095721;28;20069;-62
2023/07/04 11:53:25;;;;;;;3.92;1.50;;;18.90;99.90;;;;;;5095757;28;20036;-62
2023/07/04 11:56:14;;;;;;;5.70;1.73;;;19.00;99.90;;;;;;5095779;28;20373;-62
2023/07/04 11:58:40;;;;;;;4.60;1.60;;;19.20;99.90;;;;;;5095669;28;20119;-63
2023/07/04 12:01:06;;;;;;;6.55;1.88;;;19.30;99.90;;;;;;5094521;28;20098;-63
2023/07/04 12:04:08;;;;;;;8.95;1.75;;;19.70;99.90;;;;;;5095663;28;20480;-62
2023/07/04 12:06:47;;;;;;;6.18;1.50;;;19.30;99.90;;;;;;5061279;28;20396;-63
2023/07/04 12:09:19;;;;;;;6.30;1.75;;;19.20;99.90;;;;;;5095572;28;20048;-63
2023/07/04 12:11:46;;;;;;;6.97;1.60;;;19.30;99.90;;;;;;5094198;28;20044;-63
2023/07/04 12:14:15;;;;;;;6.55;1.63;;;19.30;99.90;;;;;;5095119;28;20036;-63
2023/07/04 12:16:44;;;;;;;4.40;1.90;;;19.40;99.90;;;;;;5095586;28;20438;-62
2023/07/04 12:19:15;;;;;;;6.43;1.65;;;19.50;99.90;;;;;;5094905;28;20075;-62
2023/07/04 12:21:43;;;;;;;6.57;1.90;;;19.50;99.90;;;;;;5095213;28;20043;-63
2023/07/04 12:24:09;;;;;;;5.55;1.80;;;19.50;99.90;;;;;;5095009;28;20148;-63
2023/07/04 12:26:35;;;;;;;7.03;1.92;;;19.50;99.90;;;;;;5094975;28;20040;-63
2023/07/04 12:29:02;;;;;;;4.10;1.65;;;19.60;99.90;;;;;;5095094;28;20069;-62
2023/07/04 12:31:28;;;;;;;4.28;1.75;;;19.70;99.90;;;;;;5094980;28;20111;-62
2023/07/04 12:33:54;;;;;;;4.90;2.00;;;19.70;99.90;;;;;;5094681;28;20047;-62
2023/07/04 12:36:28;;;;;;;6.38;2.03;;;19.80;99.90;;;;;;5094867;28;20036;-63
2023/07/04 12:38:55;;;;;;;5.63;1.80;;;19.60;99.90;;;;;;5093331;28;20040;-62
2023/07/04 12:41:23;;;;;;;9.43;1.92;;;20.00;99.90;;;;;;5094838;28;20044;-63
2023/07/04 12:43:56;;;;;;;6.80;1.88;;;19.80;99.90;;;;;;5094569;28;20110;-63
2023/07/04 12:46:22;;;;;;;5.00;1.98;;;19.70;99.90;;;;;;5094793;28;20039;-62
2023/07/04 12:48:48;;;;;;;3.72;1.45;;;20.00;99.90;;;;;;5094691;28;20040;-62
2023/07/04 12:51:19;;;;;;;4.30;1.73;;;;;;;;;;5094639;28;20085;-62
2023/07/04 12:53:45;;;;;;;3.92;1.73;;;;;;;;;;5094628;28;20043;-63
2023/07/04 12:56:12;;;;;;;3.60;1.45;;;;;;;;;;5094307;28;20488;-62
2023/07/04 12:58:43;;;;;;;5.28;1.73;;;;;;;;;;5094597;28;20036;-62
2023/07/04 13:01:10;;;;;;;8.75;2.20;;;;;;;;;;5094547;28;20039;-62